Time;durP1;ratioP1;P1;durP2;ratioP2;P2;SDS_P1;SDS_P2;PMS_P1;PMS_P2;Temp;Humidity;BMP_temperature;BMP_pressure;BME280_temperature;BME280_humidity;BME280_pressure;Samples;Min_cycle;Max_cycle;Signal;HPM_P1;HPM_P2
2022/11/14 00:02:20;;;;;;;7.22;6.28;;;;;;;3.07;100.00;95723.66;5104942;28;24433;-71
2022/11/14 00:04:47;;;;;;;7.20;6.47;;;;;;;3.04;100.00;95726.31;5106867;28;24530;-71
2022/11/14 00:07:14;;;;;;;7.55;6.30;;;;;;;3.20;100.00;95730.03;5104859;28;24446;-71
2022/11/14 00:09:41;;;;;;;8.00;7.03;;;;;;;3.22;100.00;95729.97;5100922;28;24441;-70
2022/11/14 00:12:08;;;;;;;8.03;6.93;;;;;;;3.25;100.00;95732.44;5103602;28;24486;-69
2022/11/14 00:14:35;;;;;;;6.88;6.22;;;;;;;3.33;100.00;95735.53;5108323;28;24441;-71
2022/11/14 00:17:04;;;;;;;8.35;6.95;;;;;;;3.15;100.00;95727.63;5109088;28;24445;-70
2022/11/14 00:19:30;;;;;;;8.70;7.90;;;;;;;3.20;100.00;95726.63;5098187;28;24438;-70
2022/11/14 00:21:59;;;;;;;9.13;7.40;;;;;;;3.21;100.00;95733.41;5084636;28;24445;-70
2022/11/14 00:24:25;;;;;;;11.73;9.77;;;;;;;3.13;100.00;95729.41;5087569;28;24902;-70
2022/11/14 00:26:52;;;;;;;8.57;7.78;;;;;;;3.05;100.00;95735.69;5103075;28;25001;-71
2022/11/14 00:29:18;;;;;;;9.68;7.57;;;;;;;3.03;100.00;95733.16;5106926;28;24437;-71
2022/11/14 00:31:45;;;;;;;7.63;6.88;;;;;;;3.09;100.00;95737.25;5104255;28;24437;-70
2022/11/14 00:34:13;;;;;;;7.50;6.80;;;;;;;3.07;100.00;95741.56;5106785;28;24972;-70
2022/11/14 00:36:39;;;;;;;7.63;6.87;;;;;;;3.13;100.00;95738.81;5102912;28;24440;-71
2022/11/14 00:39:06;;;;;;;8.73;7.82;;;;;;;3.28;100.00;95740.00;5106541;28;24440;-71
2022/11/14 00:41:32;;;;;;;7.32;6.63;;;;;;;3.03;100.00;95730.59;5089371;28;25014;-70
2022/11/14 00:43:59;;;;;;;6.95;6.28;;;;;;;3.07;100.00;95734.72;5100584;28;24446;-70
2022/11/14 00:46:25;;;;;;;6.50;5.90;;;;;;;3.17;100.00;95734.41;5099698;28;24994;-70
2022/11/14 00:48:51;;;;;;;8.38;6.80;;;;;;;3.14;100.00;95732.78;5105299;28;24433;-70
2022/11/14 00:51:19;;;;;;;7.60;6.70;;;;;;;3.08;100.00;95733.84;5108622;28;24448;-70
2022/11/14 00:53:46;;;;;;;7.13;6.43;;;;;;;3.18;100.00;95741.19;5109030;28;24437;-70
2022/11/14 00:56:12;;;;;;;8.07;7.20;;;;;;;2.96;100.00;95734.25;5109904;28;24444;-69
2022/11/14 00:58:39;;;;;;;7.17;6.57;;;;;;;3.05;100.00;95733.94;5103256;28;24430;-70
2022/11/14 01:01:06;;;;;;;7.18;6.50;;;;;;;3.11;100.00;95733.72;5093554;28;24820;-70
2022/11/14 01:03:32;;;;;;;7.75;6.40;;;;;;;3.04;100.00;95731.44;5106327;28;24436;-69
2022/11/14 01:06:04;;;;;;;7.68;6.97;;;;;;;2.98;100.00;95722.25;5099684;28;25036;-71
2022/11/14 01:08:33;;;;;;;7.50;6.63;;;;;;;2.86;100.00;95718.38;5098633;28;24444;-71
2022/11/14 01:11:00;;;;;;;7.97;6.90;;;;;;;2.85;100.00;95710.75;5106903;28;25000;-70
2022/11/14 01:13:31;;;;;;;8.57;6.85;;;;;;;2.82;100.00;95714.25;5096579;28;24842;-71
2022/11/14 01:16:01;;;;;;;8.18;6.60;;;;;;;2.85;100.00;95713.31;5099265;28;24442;-71
2022/11/14 01:18:27;;;;;;;8.93;7.03;;;;;;;2.83;100.00;95709.97;5091940;28;25001;-71
2022/11/14 01:20:54;;;;;;;8.05;7.28;;;;;;;2.86;100.00;95703.03;5098336;28;25060;-71
2022/11/14 01:23:20;;;;;;;8.13;7.30;;;;;;;2.79;100.00;95703.28;5099020;28;24437;-71
2022/11/14 01:25:48;;;;;;;8.38;6.65;;;;;;;2.78;100.00;95699.03;5100233;28;24460;-70
2022/11/14 01:28:18;;;;;;;8.07;7.28;;;;;;;2.76;100.00;95701.66;5101740;28;24434;-71
2022/11/14 01:30:44;;;;;;;8.27;6.63;;;;;;;2.80;100.00;95697.28;5093215;28;24820;-70
2022/11/14 01:33:11;;;;;;;9.98;6.75;;;;;;;2.78;100.00;95693.94;5099810;28;24453;-71
2022/11/14 01:35:39;;;;;;;8.15;7.10;;;;;;;2.76;100.00;95686.31;5093022;28;24448;-70
2022/11/14 01:38:05;;;;;;;8.80;6.82;;;;;;;2.70;100.00;95681.41;5097684;28;25013;-71
2022/11/14 01:40:32;;;;;;;10.43;7.40;;;;;;;2.70;100.00;95680.56;5102433;28;24448;-71
2022/11/14 01:43:32;;;;;;;7.72;6.93;;;;;;;2.67;100.00;95679.81;5106166;28;24429;-70
2022/11/14 01:46:01;;;;;;;9.77;7.50;;;;;;;2.69;100.00;95672.06;5097735;28;24449;-71
2022/11/14 01:48:35;;;;;;;12.25;7.22;;;;;;;2.64;100.00;95662.00;5094419;28;24426;-71
2022/11/14 01:51:11;;;;;;;12.10;7.03;;;;;;;2.63;100.00;95660.34;5101457;28;24441;-70
2022/11/14 01:53:38;;;;;;;8.18;7.38;;;;;;;2.71;100.00;95657.53;5099784;28;24476;-71
2022/11/14 01:56:08;;;;;;;8.88;7.57;;;;;;;2.63;100.00;95652.66;5105363;28;24975;-71
2022/11/14 01:58:38;;;;;;;12.43;6.82;;;;;;;2.58;100.00;95648.59;5097934;28;24445;-71
2022/11/14 02:01:05;;;;;;;6.85;6.25;;;;;;;2.60;100.00;95650.22;5098575;28;24444;-70
2022/11/14 02:03:31;;;;;;;15.48;6.28;;;;;;;2.57;100.00;95639.25;5095053;28;25089;-69
2022/11/14 02:05:59;;;;;;;8.47;6.47;;;;;;;2.51;100.00;95640.28;5107112;28;24461;-70
2022/11/14 02:08:26;;;;;;;33.22;7.05;;;;;;;2.54;100.00;95641.91;5102784;28;24434;-70
2022/11/14 02:10:52;;;;;;;16.20;6.68;;;;;;;2.60;100.00;95637.44;5092311;28;25390;-70
2022/11/14 02:13:19;;;;;;;7.75;5.90;;;;;;;2.65;100.00;95639.81;5103459;28;24434;-70
2022/11/14 02:15:47;;;;;;;16.27;7.03;;;;;;;2.56;100.00;95637.56;5101982;28;24436;-70
2022/11/14 02:18:13;;;;;;;33.88;6.88;;;;;;;2.55;100.00;95638.44;5098994;28;24440;-70
2022/11/14 02:20:42;;;;;;;21.95;6.28;;;;;;;2.49;100.00;95636.13;5085179;28;24445;-70
2022/11/14 02:23:10;;;;;;;14.13;6.32;;;;;;;2.54;100.00;95634.22;5091016;28;24461;-71
2022/11/14 02:25:38;;;;;;;12.77;5.80;;;;;;;2.50;100.00;95638.63;5091369;28;24457;-71
2022/11/14 02:28:07;;;;;;;14.10;5.90;;;;;;;2.45;100.00;95634.53;5100250;28;24440;-69
2022/11/14 02:30:33;;;;;;;25.35;6.50;;;;;;;2.39;100.00;95640.69;5094040;28;25010;-71
2022/11/14 02:33:00;;;;;;;19.77;6.75;;;;;;;2.48;100.00;95645.47;5094718;28;24441;-71
2022/11/14 02:35:27;;;;;;;6.23;5.63;;;;;;;2.65;100.00;95643.22;5097018;28;24994;-70
2022/11/14 02:37:54;;;;;;;17.92;6.68;;;;;;;2.64;100.00;95651.78;5103686;28;24429;-70
2022/11/14 02:40:21;;;;;;;23.45;6.78;;;;;;;2.44;100.00;95651.59;5091101;28;24978;-70
2022/11/14 02:42:47;;;;;;;15.90;6.10;;;;;;;2.47;100.00;95658.31;5095174;28;24437;-70
2022/11/14 02:45:14;;;;;;;6.63;5.97;;;;;;;2.57;100.00;95649.47;5101533;28;24820;-70
2022/11/14 02:47:41;;;;;;;7.78;6.07;;;;;;;2.62;100.00;95648.41;5097690;28;24437;-71
2022/11/14 02:50:08;;;;;;;8.00;5.30;;;;;;;2.62;100.00;95653.53;5101860;28;24723;-71
2022/11/14 02:52:34;;;;;;;6.60;5.43;;;;;;;2.81;100.00;95655.47;5096842;28;24810;-71
2022/11/14 02:55:02;;;;;;;8.32;5.90;;;;;;;2.70;100.00;95650.72;5097935;28;24975;-71
2022/11/14 02:57:29;;;;;;;13.77;5.93;;;;;;;2.54;100.00;95649.56;5092220;28;24434;-70
2022/11/14 02:59:55;;;;;;;14.35;6.13;;;;;;;2.47;100.00;95648.09;5100551;28;24443;-69
2022/11/14 03:02:22;;;;;;;9.32;5.32;;;;;;;2.51;100.00;95645.38;5104666;28;24443;-69
2022/11/14 03:04:48;;;;;;;11.10;5.60;;;;;;;2.47;100.00;95640.44;5096663;28;24457;-70
2022/11/14 03:07:15;;;;;;;8.48;5.10;;;;;;;2.43;100.00;95650.75;5098334;28;25249;-70
2022/11/14 03:09:41;;;;;;;15.07;5.63;;;;;;;2.47;100.00;95654.03;5104833;28;24449;-70
2022/11/14 03:12:09;;;;;;;6.83;5.70;;;;;;;2.45;100.00;95648.16;5106976;28;24444;-70
2022/11/14 03:14:36;;;;;;;6.28;5.28;;;;;;;2.41;100.00;95654.25;5103516;28;25034;-71
2022/11/14 03:17:02;;;;;;;5.90;5.32;;;;;;;2.59;100.00;95660.47;5101324;28;24437;-70
2022/11/14 03:19:29;;;;;;;8.90;5.25;;;;;;;2.39;100.00;95659.41;5101650;28;24523;-70
2022/11/14 03:21:55;;;;;;;13.43;5.35;;;;;;;2.34;100.00;95657.91;5100582;28;24444;-71
2022/11/14 03:24:22;;;;;;;15.80;5.47;;;;;;;2.20;100.00;95660.06;5103778;28;24461;-70
2022/11/14 03:26:48;;;;;;;19.57;5.10;;;;;;;2.13;100.00;95656.88;5106500;28;25087;-71
2022/11/14 03:29:16;;;;;;;34.72;5.25;;;;;;;2.09;100.00;95660.41;5100194;28;24442;-70
2022/11/14 03:31:43;;;;;;;14.38;5.13;;;;;;;2.11;100.00;95654.38;5099807;28;24436;-70
2022/11/14 03:34:10;;;;;;;18.00;5.22;;;;;;;2.10;100.00;95649.28;5097693;28;24441;-70
2022/11/14 03:36:37;;;;;;;28.98;6.07;;;;;;;2.04;100.00;95632.44;5102707;28;24487;-71
2022/11/14 03:39:04;;;;;;;29.85;5.57;;;;;;;2.06;100.00;95627.28;5099914;28;24435;-71
2022/11/14 03:41:31;;;;;;;19.70;5.83;;;;;;;2.03;100.00;95632.47;5096422;28;24513;-70
2022/11/14 03:43:58;;;;;;;27.50;6.45;;;;;;;1.97;100.00;95622.47;5103908;28;24429;-71
2022/11/14 03:46:26;;;;;;;24.00;6.28;;;;;;;2.03;100.00;95627.38;5103187;28;24442;-70
2022/11/14 03:48:52;;;;;;;31.08;6.00;;;;;;;2.06;100.00;95625.56;5095064;28;24457;-70
2022/11/14 03:51:19;;;;;;;23.13;5.78;;;;;;;2.08;100.00;95625.53;5097336;28;24571;-70
2022/11/14 03:53:45;;;;;;;15.13;5.45;;;;;;;2.04;100.00;95629.91;5101750;28;24429;-70
2022/11/14 03:56:12;;;;;;;21.15;5.30;;;;;;;2.04;100.00;95623.91;5110005;28;24456;-70
2022/11/14 03:58:38;;;;;;;15.00;5.20;;;;;;;1.96;100.00;95626.72;5097714;28;24445;-70
2022/11/14 04:01:05;;;;;;;11.70;5.47;;;;;;;2.12;100.00;95622.81;5096392;28;24880;-70
2022/11/14 04:03:33;;;;;;;24.80;5.43;;;;;;;2.01;100.00;95622.31;5103438;28;24449;-70
2022/11/14 04:05:59;;;;;;;9.95;5.68;;;;;;;2.05;100.00;95617.97;5104068;28;24454;-70
2022/11/14 04:08:26;;;;;;;5.35;4.25;;;;;;;2.06;100.00;95623.00;5102277;28;24437;-70
2022/11/14 04:10:52;;;;;;;7.43;5.15;;;;;;;2.00;100.00;95623.19;5097737;28;24441;-70
2022/11/14 04:13:19;;;;;;;8.63;4.20;;;;;;;2.01;100.00;95629.16;5097998;28;24442;-70
2022/11/14 04:15:45;;;;;;;16.33;4.77;;;;;;;2.01;100.00;95634.25;5100021;28;24465;-70
2022/11/14 04:18:12;;;;;;;10.65;4.60;;;;;;;2.04;100.00;95635.00;5104017;28;24983;-71
2022/11/14 04:20:40;;;;;;;6.85;4.63;;;;;;;2.06;100.00;95645.16;5096563;28;24434;-70
2022/11/14 04:23:06;;;;;;;6.95;4.78;;;;;;;2.00;100.00;95643.63;5097162;28;24441;-71
2022/11/14 04:25:33;;;;;;;11.82;5.05;;;;;;;2.06;100.00;95634.94;5101741;28;24813;-70
2022/11/14 04:27:59;;;;;;;5.00;4.60;;;;;;;2.08;100.00;95626.34;5101446;28;24437;-70
2022/11/14 04:30:26;;;;;;;12.32;5.18;;;;;;;2.01;100.00;95621.50;5094122;28;24803;-70
2022/11/14 04:32:52;;;;;;;8.98;5.00;;;;;;;2.01;100.00;95621.50;5103420;28;24437;-71
2022/11/14 04:35:19;;;;;;;8.20;4.20;;;;;;;1.92;100.00;95617.50;5108439;28;25025;-70
2022/11/14 04:37:47;;;;;;;7.18;4.30;;;;;;;1.86;100.00;95603.22;5092210;28;24430;-70
2022/11/14 04:40:14;;;;;;;8.10;4.43;;;;;;;1.82;100.00;95608.47;5089069;28;24438;-71
2022/11/14 04:42:40;;;;;;;7.38;4.53;;;;;;;1.79;100.00;95600.91;5102649;28;24437;-70
2022/11/14 04:45:08;;;;;;;6.15;4.55;;;;;;;1.84;100.00;95610.06;5105479;28;24461;-71
2022/11/14 04:47:34;;;;;;;5.82;4.50;;;;;;;1.74;100.00;95613.78;5099244;28;25013;-70
2022/11/14 04:50:01;;;;;;;10.98;4.95;;;;;;;1.81;100.00;95624.66;5090240;28;24442;-70
2022/11/14 04:52:27;;;;;;;6.63;5.65;;;;;;;1.84;100.00;95627.94;5107833;28;25037;-71
2022/11/14 04:54:55;;;;;;;7.72;6.53;;;;;;;1.86;100.00;95617.69;5099659;28;24445;-71
2022/11/14 04:57:22;;;;;;;12.82;7.75;;;;;;;1.79;100.00;95613.66;5106945;28;24434;-70
2022/11/14 04:59:48;;;;;;;15.30;8.00;;;;;;;1.83;100.00;95605.03;5102494;28;24532;-70
2022/11/14 05:02:15;;;;;;;15.57;8.40;;;;;;;1.85;100.00;95611.72;5097191;28;24452;-70
2022/11/14 05:04:43;;;;;;;13.63;8.52;;;;;;;1.79;100.00;95596.63;5100520;28;24444;-71
2022/11/14 05:07:09;;;;;;;16.90;9.63;;;;;;;1.99;100.00;95597.69;5092431;28;24437;-70
2022/11/14 05:09:36;;;;;;;13.80;10.77;;;;;;;2.06;100.00;95594.06;5099278;28;24437;-70
2022/11/14 05:12:05;;;;;;;13.20;5.97;;;;;;;1.87;100.00;95604.88;5101883;28;24437;-70
2022/11/14 05:14:31;;;;;;;8.55;5.82;;;;;;;1.91;100.00;95603.88;5106750;28;24434;-71
2022/11/14 05:16:58;;;;;;;7.93;4.40;;;;;;;1.87;100.00;95602.31;5097724;28;24437;-70
2022/11/14 05:19:25;;;;;;;7.97;5.07;;;;;;;1.91;100.00;95600.50;5104166;27;24440;-71
2022/11/14 05:21:51;;;;;;;7.53;5.25;;;;;;;1.90;100.00;95594.56;5094531;28;24445;-70
2022/11/14 05:24:18;;;;;;;5.85;5.10;;;;;;;1.97;100.00;95602.88;5082200;28;24430;-71
2022/11/14 05:26:44;;;;;;;9.70;5.57;;;;;;;1.91;100.00;95592.84;5096583;28;25036;-71
2022/11/14 05:29:12;;;;;;;12.38;5.50;;;;;;;1.92;100.00;95597.06;5094019;28;24438;-70
2022/11/14 05:31:39;;;;;;;9.45;5.65;;;;;;;1.93;100.00;95601.31;5097823;28;24445;-71
2022/11/14 05:34:05;;;;;;;6.00;5.38;;;;;;;1.95;100.00;95596.97;5102335;28;24980;-71
2022/11/14 05:36:32;;;;;;;6.53;5.57;;;;;;;2.00;100.00;95586.59;5095870;28;24426;-71
2022/11/14 05:38:58;;;;;;;7.68;5.80;;;;;;;2.03;100.00;95583.94;5107309;28;24434;-70
2022/11/14 05:41:25;;;;;;;9.33;5.90;;;;;;;1.98;100.00;95586.66;5104556;28;24441;-70
2022/11/14 05:43:51;;;;;;;6.05;5.45;;;;;;;2.03;100.00;95584.78;5102957;28;24480;-71
2022/11/14 05:46:19;;;;;;;6.15;5.50;;;;;;;2.01;100.00;95594.22;5098576;28;24457;-71
2022/11/14 05:48:46;;;;;;;7.82;5.82;;;;;;;2.08;100.00;95589.75;5095835;28;24434;-71
2022/11/14 05:51:13;;;;;;;9.18;5.03;;;;;;;2.05;100.00;95584.75;5104459;28;24993;-70
2022/11/14 05:53:40;;;;;;;7.07;5.47;;;;;;;2.03;100.00;95577.13;5090191;28;24445;-70
2022/11/14 05:56:11;;;;;;;5.97;4.90;;;;;;;2.00;100.00;95584.88;5090612;28;24465;-72
2022/11/14 05:58:37;;;;;;;9.38;5.28;;;;;;;2.02;100.00;95578.00;5098708;28;25009;-70
2022/11/14 06:01:06;;;;;;;5.47;4.97;;;;;;;2.07;100.00;95578.69;5102277;28;24972;-70
2022/11/14 06:03:36;;;;;;;5.85;5.30;;;;;;;2.09;100.00;95581.22;5105599;28;24426;-70
2022/11/14 06:06:04;;;;;;;10.80;5.40;;;;;;;2.08;100.00;95585.47;5106991;28;24838;-69
2022/11/14 06:08:31;;;;;;;7.35;5.20;;;;;;;2.05;100.00;95584.75;5107805;28;24998;-70
2022/11/14 06:11:03;;;;;;;5.75;5.10;;;;;;;2.03;100.00;95587.34;5092989;28;24434;-70
2022/11/14 06:13:29;;;;;;;6.07;5.28;;;;;;;2.12;100.00;95593.88;5096964;28;24442;-70
2022/11/14 06:15:58;;;;;;;6.15;5.55;;;;;;;2.10;100.00;95591.34;5095524;28;24793;-70
2022/11/14 06:18:26;;;;;;;6.60;5.63;;;;;;;2.13;100.00;95593.81;5099214;28;24441;-70
2022/11/14 06:20:54;;;;;;;5.90;5.30;;;;;;;2.26;100.00;95589.13;5090892;28;24800;-70
2022/11/14 06:23:20;;;;;;;6.60;6.00;;;;;;;2.26;100.00;95599.34;5095000;28;25001;-70
2022/11/14 06:25:47;;;;;;;6.25;5.65;;;;;;;2.45;100.00;95608.97;5100480;28;25024;-70
2022/11/14 06:28:13;;;;;;;5.93;5.28;;;;;;;2.57;100.00;95604.28;5084895;28;24441;-71
2022/11/14 06:30:40;;;;;;;6.25;5.65;;;;;;;2.62;100.00;95612.63;5094275;28;24437;-70
2022/11/14 06:33:06;;;;;;;5.78;5.28;;;;;;;2.67;100.00;95618.44;5094827;28;24927;-70
2022/11/14 06:35:34;;;;;;;7.20;5.68;;;;;;;2.76;100.00;95616.44;5093778;28;24748;-71
2022/11/14 06:38:02;;;;;;;6.22;5.63;;;;;;;2.75;100.00;95622.47;5094893;28;24434;-70
2022/11/14 06:40:28;;;;;;;8.00;6.10;;;;;;;2.74;100.00;95623.31;5109941;28;24435;-69
2022/11/14 06:42:55;;;;;;;6.45;5.80;;;;;;;2.67;100.00;95628.66;5101076;28;25057;-69
2022/11/14 06:45:22;;;;;;;6.88;6.13;;;;;;;2.70;100.00;95629.44;5095715;28;25081;-69
2022/11/14 06:47:48;;;;;;;6.25;5.65;;;;;;;2.69;100.00;95630.31;5104296;28;24429;-70
2022/11/14 06:50:15;;;;;;;7.67;5.77;;;;;;;2.63;100.00;95622.00;5097980;28;24899;-70
2022/11/14 06:52:41;;;;;;;6.40;5.80;;;;;;;2.78;100.00;95632.56;5095945;28;24444;-70
2022/11/14 06:55:09;;;;;;;9.30;6.40;;;;;;;2.78;100.00;95630.84;5106788;28;24445;-69
2022/11/14 06:57:36;;;;;;;6.60;6.00;;;;;;;2.78;100.00;95640.22;5106450;28;24429;-69
2022/11/14 07:00:03;;;;;;;6.75;6.18;;;;;;;2.89;100.00;95645.81;5092036;28;24995;-70
2022/11/14 07:02:30;;;;;;;7.78;6.97;;;;;;;2.94;100.00;95636.28;5081433;28;24433;-70
2022/11/14 07:04:57;;;;;;;7.00;6.40;;;;;;;2.85;100.00;95634.84;5087334;28;24435;-69
2022/11/14 07:07:24;;;;;;;7.13;6.30;;;;;;;2.84;100.00;95640.03;5090868;28;24449;-69
2022/11/14 07:09:50;;;;;;;8.10;7.30;;;;;;;2.80;100.00;95630.78;5093893;28;24433;-69
2022/11/14 07:12:18;;;;;;;7.47;6.77;;;;;;;2.87;100.00;95627.97;5094603;28;24520;-69
2022/11/14 07:14:44;;;;;;;6.93;6.28;;;;;;;2.97;100.00;95625.09;5087345;28;24438;-69
2022/11/14 07:17:11;;;;;;;8.07;6.75;;;;;;;3.00;100.00;95627.53;5097264;28;24441;-69
2022/11/14 07:19:37;;;;;;;9.63;7.35;;;;;;;3.02;100.00;95631.72;5094926;28;24461;-70
2022/11/14 07:22:04;;;;;;;8.27;7.47;;;;;;;3.09;100.00;95624.66;5080818;28;24438;-70
2022/11/14 07:24:30;;;;;;;9.00;7.20;;;;;;;3.23;100.00;95631.84;5090382;28;24436;-69
2022/11/14 07:26:57;;;;;;;8.00;7.10;;;;;;;3.38;100.00;95628.72;5094705;28;24455;-70
2022/11/14 07:29:25;;;;;;;9.68;7.05;;;;;;;3.36;100.00;95621.09;5095758;28;24792;-70
2022/11/14 07:31:51;;;;;;;8.32;7.47;;;;;;;3.22;100.00;95627.59;5092742;28;24438;-70
2022/11/14 07:34:18;;;;;;;8.70;7.85;;;;;;;3.22;100.00;95619.91;5086652;28;25043;-70
2022/11/14 07:36:44;;;;;;;9.35;7.20;;;;;;;3.32;100.00;95623.81;5098921;28;24422;-70
2022/11/14 07:39:11;;;;;;;8.70;6.97;;;;;;;3.42;100.00;95624.31;5103825;28;24804;-70
2022/11/14 07:41:37;;;;;;;7.78;6.80;;;;;;;3.51;100.00;95632.47;5100486;28;24446;-72
2022/11/14 07:44:04;;;;;;;7.38;6.72;;;;;;;3.56;100.00;95634.84;5098439;28;24788;-72
2022/11/14 07:46:32;;;;;;;9.65;7.57;;;;;;;3.39;100.00;95631.22;5100625;28;24456;-72
2022/11/14 07:48:58;;;;;;;7.93;7.13;;;;;;;3.39;100.00;95631.22;5092544;28;24986;-72
2022/11/14 07:51:25;;;;;;;9.48;7.57;;;;;;;3.35;100.00;95629.66;5099121;28;24433;-70
2022/11/14 07:53:52;;;;;;;8.50;7.70;;;;;;;3.43;100.00;95633.66;5101111;28;24436;-70
2022/11/14 07:56:19;;;;;;;10.20;8.18;;;;;;;3.46;100.00;95634.38;5097307;28;24462;-70
2022/11/14 07:58:45;;;;;;;10.13;8.40;;;;;;;3.42;100.00;95635.41;5104324;28;24429;-70
2022/11/14 08:01:13;;;;;;;13.52;8.98;;;;;;;3.46;100.00;95636.94;5091519;28;24442;-70
2022/11/14 08:03:42;;;;;;;11.88;9.00;;;;;;;3.47;100.00;95632.66;5092947;28;24443;-70
2022/11/14 08:06:11;;;;;;;12.18;9.20;;;;;;;3.51;100.00;95632.47;5101293;28;24469;-70
2022/11/14 08:08:38;;;;;;;9.70;8.73;;;;;;;3.61;100.00;95640.66;5094858;28;25030;-70
2022/11/14 08:11:04;;;;;;;9.27;8.38;;;;;;;3.70;100.00;95634.34;5087979;28;24441;-71
2022/11/14 08:13:32;;;;;;;9.70;8.70;;;;;;;3.83;100.00;95633.00;5102413;28;24434;-71
2022/11/14 08:15:59;;;;;;;10.50;9.40;;;;;;;3.84;100.00;95632.09;5104428;28;24430;-71
2022/11/14 08:18:26;;;;;;;10.52;9.43;;;;;;;3.84;100.00;95630.38;5079565;28;24491;-71
2022/11/14 08:20:56;;;;;;;10.73;9.68;;;;;;;3.93;100.00;95628.34;5084135;28;24967;-71
2022/11/14 08:23:22;;;;;;;10.65;9.65;;;;;;;3.98;100.00;95634.97;5088756;28;24956;-71
2022/11/14 08:25:49;;;;;;;10.73;9.65;;;;;;;4.02;100.00;95640.81;5098036;28;24441;-72
2022/11/14 08:28:15;;;;;;;12.40;9.45;;;;;;;4.09;100.00;95647.38;5084422;28;24435;-72
2022/11/14 08:30:42;;;;;;;11.52;10.20;;;;;;;4.13;100.00;95646.34;5093989;28;24449;-72
2022/11/14 08:33:09;;;;;;;10.43;9.38;;;;;;;4.18;100.00;95646.16;5092684;28;24453;-72
2022/11/14 08:35:35;;;;;;;11.65;9.93;;;;;;;4.25;100.00;95642.47;5104655;28;24997;-72
2022/11/14 08:38:03;;;;;;;10.00;9.00;;;;;;;4.30;100.00;95640.53;5104538;28;25001;-72
2022/11/14 08:40:30;;;;;;;11.57;9.30;;;;;;;4.34;100.00;95647.22;5107767;28;24997;-72
2022/11/14 08:43:00;;;;;;;10.45;9.45;;;;;;;4.39;100.00;95649.59;5104458;28;24437;-73
2022/11/14 08:45:28;;;;;;;10.75;9.65;;;;;;;4.46;100.00;95651.84;5107291;28;24491;-72
2022/11/14 08:47:54;;;;;;;10.70;9.55;;;;;;;4.52;100.00;95646.47;5104641;28;24453;-73
2022/11/14 08:50:21;;;;;;;9.90;8.90;;;;;;;4.65;100.00;95648.53;5092082;28;24440;-72
2022/11/14 08:52:51;;;;;;;11.02;9.00;;;;;;;4.80;100.00;95653.84;5091532;28;24434;-72
2022/11/14 08:55:19;;;;;;;10.95;9.20;;;;;;;4.94;100.00;95643.00;5100380;28;24503;-72
2022/11/14 08:57:46;;;;;;;9.30;8.40;;;;;;;5.01;100.00;95654.69;5096277;28;24480;-72
2022/11/14 09:00:14;;;;;;;12.68;8.77;;;;;;;5.08;100.00;95645.00;5094261;28;24436;-72
2022/11/14 09:02:41;;;;;;;9.20;8.00;;;;;;;5.05;100.00;95642.56;5103438;28;24422;-72
2022/11/14 09:05:08;;;;;;;9.75;7.68;;;;;;;5.03;100.00;95642.59;5099566;28;24505;-71
2022/11/14 09:07:34;;;;;;;10.02;7.05;;;;;;;5.03;100.00;95642.59;5079938;28;24496;-71
2022/11/14 09:10:01;;;;;;;9.48;7.55;;;;;;;5.08;100.00;95647.56;5096449;28;24434;-72
2022/11/14 09:12:29;;;;;;;8.35;6.82;;;;;;;5.08;100.00;95645.00;5102550;28;24796;-71
2022/11/14 09:14:56;;;;;;;9.25;6.03;;;;;;;5.12;100.00;95645.66;5090501;28;24468;-72
2022/11/14 09:17:22;;;;;;;7.45;6.28;;;;;;;5.17;100.00;95647.16;5088916;28;24529;-72
2022/11/14 09:19:49;;;;;;;8.27;6.57;;;;;;;5.19;100.00;95645.38;5094878;28;24526;-71
2022/11/14 09:22:15;;;;;;;7.53;6.35;;;;;;;5.26;100.00;95653.63;5087466;28;24808;-71
2022/11/14 09:24:42;;;;;;;7.50;6.70;;;;;;;5.29;100.00;95650.91;5088041;28;24504;-71
2022/11/14 09:27:08;;;;;;;6.78;6.15;;;;;;;5.28;100.00;95647.50;5097098;28;24446;-71
2022/11/14 09:29:36;;;;;;;8.15;6.45;;;;;;;5.33;100.00;95644.75;5100332;28;24974;-71
2022/11/14 09:32:03;;;;;;;7.45;6.13;;;;;;;5.35;100.00;95653.22;5099292;28;24430;-72
2022/11/14 09:34:29;;;;;;;12.90;6.47;;;;;;;5.37;100.00;95650.56;5089136;28;24827;-72
2022/11/14 09:36:56;;;;;;;5.82;5.22;;;;;;;5.39;100.00;95651.34;5094985;28;24441;-72
2022/11/14 09:39:22;;;;;;;6.45;5.53;;;;;;;5.41;100.00;95655.50;5099237;28;24460;-72
2022/11/14 09:42:03;;;;;;;6.63;5.40;;;;;;;5.44;100.00;95655.38;5097753;27;24441;-71
2022/11/14 09:44:46;;;;;;;6.95;5.35;;;;;;;5.48;100.00;95653.50;5068685;28;24426;-72
2022/11/14 09:47:16;;;;;;;5.63;5.03;;;;;;;5.51;100.00;95648.22;5080223;28;25004;-72
2022/11/14 09:49:45;;;;;;;8.20;5.07;;;;;;;5.53;100.00;95649.00;5082640;28;24434;-71
2022/11/14 09:52:21;;;;;;;6.90;4.85;;;;;;;5.57;100.00;95651.38;5077080;28;24974;-71
2022/11/14 09:54:53;;;;;;;7.72;5.13;;;;;;;5.64;100.00;95653.66;5079318;28;24437;-71
2022/11/14 09:57:20;;;;;;;8.18;5.30;;;;;;;5.68;100.00;95653.44;5080922;28;24427;-71
2022/11/14 09:59:50;;;;;;;5.72;4.43;;;;;;;5.71;100.00;95652.47;5083224;28;24530;-71
2022/11/14 10:02:31;;;;;;;7.30;4.70;;;;;;;5.72;100.00;95642.13;5086256;28;24437;-71
2022/11/14 10:05:08;;;;;;;7.47;4.50;;;;;;;5.76;100.00;95640.25;5084796;28;24427;-72
2022/11/14 10:07:47;;;;;;;5.93;4.97;;;;;;;5.91;100.00;95647.25;5081766;28;24447;-71
2022/11/14 10:10:32;;;;;;;8.07;4.72;;;;;;;5.94;100.00;95649.72;5083231;28;24446;-73
2022/11/14 10:13:07;;;;;;;7.25;4.80;;;;;;;6.00;100.00;95651.97;5079574;28;24446;-72
2022/11/14 10:15:42;;;;;;;7.75;5.65;;;;;;;6.02;100.00;95650.19;5082054;28;24437;-71
2022/11/14 10:18:28;;;;;;;6.30;5.37;;;;;;;6.11;100.00;95641.19;5078945;28;24434;-71
2022/11/14 10:20:58;;;;;;;7.00;4.80;;;;;;;6.12;100.00;95648.03;5072148;28;25007;-72
2022/11/14 10:23:37;;;;;;;4.88;4.40;;;;;;;6.14;100.00;95643.63;5069594;28;24441;-72
2022/11/14 10:26:15;;;;;;;6.43;4.20;;;;;;;6.14;100.00;95640.22;5075168;28;24925;-72
2022/11/14 10:29:08;;;;;;;6.40;3.95;;;;;;;6.17;100.00;95642.66;5083761;28;24438;-71
2022/11/14 10:31:51;;;;;;;8.00;4.28;;;;;;;6.22;100.00;95643.25;5062947;28;24530;-72
2022/11/14 10:34:27;;;;;;;5.00;4.00;;;;;;;6.35;100.00;95641.78;5062980;28;24438;-72
2022/11/14 10:37:00;;;;;;;6.53;3.33;;;;;;;6.43;100.00;95639.66;5066023;28;24433;-73
2022/11/14 10:39:35;;;;;;;3.95;3.22;;;;;;;6.51;100.00;95631.56;5065727;28;24992;-72
2022/11/14 10:42:08;;;;;;;3.47;2.88;;;;;;;6.61;100.00;95637.13;5076135;28;20789;-72
2022/11/14 10:44:40;;;;;;;3.50;3.15;;;;;;;6.64;100.00;95642.13;5076856;28;24445;-72
2022/11/14 10:47:14;;;;;;;4.13;2.90;;;;;;;6.72;100.00;95629.69;5072054;28;24454;-71
2022/11/14 10:49:40;;;;;;;3.55;2.78;;;;;;;6.81;100.00;95633.53;5068804;28;24465;-71
2022/11/14 10:52:13;;;;;;;3.88;2.95;;;;;;;6.88;100.00;95640.88;5062285;28;24439;-72
2022/11/14 10:54:45;;;;;;;4.47;2.13;;;;;;;7.20;100.00;95646.97;5062756;28;24438;-72
2022/11/14 10:57:15;;;;;;;3.38;1.88;;;;;;;7.21;100.00;95637.50;5068126;28;24800;-72
2022/11/14 10:59:43;;;;;;;2.10;1.80;;;;;;;7.27;100.00;95637.19;5065703;28;24446;-71
2022/11/14 11:02:11;;;;;;;2.53;2.00;;;;;;;7.27;100.00;95642.34;5069258;28;25037;-71
2022/11/14 11:04:39;;;;;;;2.28;1.90;;;;;;;7.27;100.00;95626.88;5069594;28;24438;-71
2022/11/14 11:13:05;;;;;;;2.05;1.40;;;;;;;7.60;100.00;95626.00;5070207;28;24484;-72
2022/11/14 11:15:39;;;;;;;2.15;1.45;;;;;;;7.70;100.00;95624.59;5069959;28;24449;-72
2022/11/14 11:18:25;;;;;;;2.67;1.58;;;;;;;7.72;100.00;95630.53;5071644;28;24874;-72
2022/11/14 11:21:03;;;;;;;1.15;0.95;;;;;;;7.81;100.00;95621.44;5068271;28;24822;-72
2022/11/14 11:23:29;;;;;;;3.35;1.33;;;;;;;7.81;100.00;95622.28;5067336;28;24976;-72
2022/11/14 11:26:00;;;;;;;1.40;1.10;;;;;;;7.86;100.00;95619.44;5083472;28;24438;-72
2022/11/14 11:28:28;;;;;;;2.60;1.30;;;;;;;7.86;100.00;95609.13;5078971;28;24450;-72
2022/11/14 11:30:57;;;;;;;1.85;1.10;;;;;;;7.99;100.00;95617.88;5062847;28;20779;-72
2022/11/14 11:33:28;;;;;;;2.50;1.00;;;;;;;7.94;100.00;95622.47;5070650;28;24438;-72
2022/11/14 11:35:57;;;;;;;2.70;1.50;;;;;;;7.99;100.00;95615.28;5069453;28;24431;-72
2022/11/14 11:38:25;;;;;;;1.67;1.13;;;;;;;8.07;100.00;95612.28;5075874;28;24479;-72
2022/11/14 11:40:58;;;;;;;3.17;1.20;;;;;;;8.13;100.00;95611.97;5076896;28;24858;-72
2022/11/14 11:43:34;;;;;;;2.93;1.10;;;;;;;8.01;100.00;95618.63;5085798;28;24427;-72